Time;durP1;ratioP1;P1;durP2;ratioP2;P2;SDS_P1;SDS_P2;PMS_P1;PMS_P2;Temp;Humidity;BMP_temperature;BMP_pressure;BME280_temperature;BME280_humidity;BME280_pressure;Samples;Min_cycle;Max_cycle;Signal;HPM_P1;HPM_P2
2023/10/12 00:02:28;;;;;;;26.48;4.55;;;;;;;;;;5092506;28;20058;-70
2023/10/12 00:05:03;;;;;;;16.73;4.05;;;;;;;;;;5101994;28;20054;-69
2023/10/12 00:07:38;;;;;;;16.20;4.03;;;;;;;;;;5106103;28;20128;-69
2023/10/12 00:12:47;;;;;;;13.77;4.43;;;;;;;;;;5109723;28;20209;-71
2023/10/12 00:17:50;;;;;;;12.45;4.35;;;;;;;;;;5099526;28;20475;-70
2023/10/12 00:20:53;;;;;;;19.02;4.70;;;;;;;;;;5099043;28;20046;-69
2023/10/12 00:23:10;;;;;;;12.25;4.15;;;;;;;;;;5101628;28;20507;-70
2023/10/12 00:25:45;;;;;;;10.07;3.92;;;;;;;;;;5109844;28;20165;-71
2023/10/12 00:28:17;;;;;;;16.95;4.90;;;;;;;;;;5100793;28;20693;-70
2023/10/12 00:30:47;;;;;;;8.70;3.15;;;;;;;;;;5104158;28;20052;-70
2023/10/12 00:33:14;;;;;;;9.77;4.03;;;;;;;;;;5099178;28;20043;-70
2023/10/12 00:35:41;;;;;;;14.15;3.67;;;;;;;;;;5109564;28;20476;-70
2023/10/12 00:38:17;;;;;;;15.20;5.28;;;;;;;;;;5106089;28;20303;-70
2023/10/12 00:40:50;;;;;;;13.40;4.05;;;;;;;;;;5109299;28;20040;-70
2023/10/12 00:43:17;;;;;;;9.25;3.72;;;;;;;;;;5103332;28;20366;-70
2023/10/12 00:45:43;;;;;;;12.50;4.18;;;;;;;;;;5107313;28;20480;-70
2023/10/12 00:48:15;;;;;;;14.68;3.67;;;;;;;;;;5102460;28;20047;-70
2023/10/12 00:50:44;;;;;;;17.25;4.35;;;;;;;;;;5104642;28;20048;-70
2023/10/12 00:55:47;;;;;;;14.05;3.92;;;;;;;;;;5098807;28;20051;-70
2023/10/12 00:58:14;;;;;;;11.18;3.38;;;;;;;;;;5105434;28;20067;-70
2023/10/12 01:00:54;;;;;;;10.10;4.13;;;;;;;;;;5101206;28;20048;-70
2023/10/12 01:03:36;;;;;;;17.77;4.20;;;;;;;;;;5108451;28;20428;-70
2023/10/12 01:06:47;;;;;;;14.43;3.90;;;;;;;;;;5106074;28;20119;-69
2023/10/12 01:08:57;;;;;;;20.08;4.38;;;;;;;;;;5086252;28;20063;-69
2023/10/12 01:11:26;;;;;;;9.77;4.38;;;;;;;;;;5101016;28;20561;-70
2023/10/12 01:14:09;;;;;;;11.82;3.55;;;;;;;;;;5098872;28;20051;-70
2023/10/12 01:16:44;;;;;;;16.23;4.28;;;;;;;;;;5108679;28;20736;-69
2023/10/12 01:19:19;;;;;;;19.00;4.82;;;;;;;;;;5100797;28;20040;-69
2023/10/12 01:21:46;;;;;;;16.83;4.38;;;;;;;;;;5107700;28;20146;-69
2023/10/12 01:24:12;;;;;;;13.52;3.72;;;;;;;;;;5094786;28;20424;-69
2023/10/12 01:26:40;;;;;;;17.63;3.92;;;;;;;;;;5105322;28;20054;-69
2023/10/12 01:29:12;;;;;;;10.80;3.40;;;;;;;;;;5108857;28;20043;-70
2023/10/12 01:31:43;;;;;;;10.63;4.07;;;;;;;;;;5105192;28;20438;-70
2023/10/12 01:34:13;;;;;;;7.47;3.40;;;;;;;;;;5109196;28;20051;-70
2023/10/12 01:36:43;;;;;;;14.97;3.93;;;;;;;;;;5097706;28;20449;-70
2023/10/12 01:39:11;;;;;;;19.88;4.25;;;;;;;;;;5108276;28;20054;-70
2023/10/12 01:41:40;;;;;;;12.43;4.38;;;;;;;;;;5103696;28;20446;-69
2023/10/12 01:44:10;;;;;;;9.82;4.05;;;;;;;;;;5108214;28;20067;-70
2023/10/12 01:46:40;;;;;;;8.63;3.60;;;;;;;;;;5102669;28;20093;-70
2023/10/12 01:49:08;;;;;;;15.43;4.57;;;;;;;;;;5105290;28;20715;-70
2023/10/12 01:51:45;;;;;;;16.05;3.90;;;;;;;;;;5094737;28;20082;-70
2023/10/12 01:54:12;;;;;;;12.20;3.83;;;;;;;;;;5092686;28;20079;-70
2023/10/12 01:56:38;;;;;;;14.07;3.63;;;;;;;;;;5104356;28;20464;-70
2023/10/12 01:59:08;;;;;;;13.25;4.65;;;;;;;;;;5102151;28;20554;-70
2023/10/12 02:01:39;;;;;;;13.10;4.10;;;;;;;;;;5108143;28;20135;-71
2023/10/12 02:04:06;;;;;;;15.63;3.88;;;;;;;;;;5089164;28;20051;-69
2023/10/12 02:06:33;;;;;;;14.45;4.18;;;;;;;;;;5105262;28;20108;-70
2023/10/12 02:09:08;;;;;;;14.55;3.85;;;;;;;;;;5098063;28;20131;-70
2023/10/12 02:11:43;;;;;;;11.32;4.05;;;;;;;;;;5107808;28;20069;-70
2023/10/12 02:14:15;;;;;;;18.30;4.95;;;;;;;;;;5103294;28;20043;-70
2023/10/12 02:16:53;;;;;;;24.02;5.40;;;;;;;;;;5104372;28;20548;-70
2023/10/12 02:19:31;;;;;;;16.08;4.53;;;;;;;;;;5107498;28;20054;-70
2023/10/12 02:22:01;;;;;;;10.93;4.78;;;;;;;;;;5102801;28;20368;-69
2023/10/12 02:24:28;;;;;;;22.80;5.30;;;;;;;;;;5107523;28;20060;-70
2023/10/12 02:26:55;;;;;;;10.82;3.70;;;;;;;;;;5104315;28;20120;-70
2023/10/12 02:29:21;;;;;;;18.25;4.78;;;;;;;;;;5107291;28;20093;-70
2023/10/12 02:34:19;;;;;;;11.13;4.00;;;;;;;;;;5106547;28;20424;-70
2023/10/12 02:37:00;;;;;;;14.88;4.95;;;;;;;;;;5098399;28;20485;-70
2023/10/12 02:39:28;;;;;;;13.00;4.00;;;;;;;;;;5103207;28;20042;-70
2023/10/12 02:42:10;;;;;;;11.98;4.82;;;;;;;;;;5099427;28;20535;-70
2023/10/12 02:44:44;;;;;;;20.58;4.60;;;;;;;;;;5099081;28;20048;-70
2023/10/12 02:47:22;;;;;;;10.55;4.07;;;;;;;;;;5102214;28;20062;-70
2023/10/12 02:49:49;;;;;;;17.73;4.55;;;;;;;;;;5096954;28;20510;-70
2023/10/12 02:52:16;;;;;;;12.65;4.60;;;;;;;;;;5106661;28;20135;-70
2023/10/12 02:54:51;;;;;;;16.25;4.78;;;;;;;;;;5102924;28;20044;-70
2023/10/12 02:57:22;;;;;;;12.20;4.05;;;;;;;;;;5106369;28;20044;-70
2023/10/12 02:59:57;;;;;;;12.13;4.10;;;;;;;;;;5106868;28;20047;-70
2023/10/12 03:02:32;;;;;;;22.75;4.78;;;;;;;;;;5106010;28;20044;-70
2023/10/12 03:05:17;;;;;;;22.60;4.80;;;;;;;;;;5106726;28;20055;-70
2023/10/12 03:07:44;;;;;;;13.25;4.45;;;;;;;;;;5103227;28;20047;-70
2023/10/12 03:10:24;;;;;;;11.90;5.20;;;;;;;;;;5106731;28;20067;-70
2023/10/12 03:12:54;;;;;;;11.95;4.38;;;;;;;;;;5099804;28;20549;-70
2023/10/12 03:15:55;;;;;;;11.70;3.70;;;;;;;;;;5106640;28;20496;-70
2023/10/12 03:18:12;;;;;;;13.52;4.65;;;;;;;;;;5100257;28;20132;-70
2023/10/12 03:20:39;;;;;;;16.10;5.50;;;;;;;;;;5103043;28;20044;-70
2023/10/12 03:23:16;;;;;;;13.68;4.13;;;;;;;;;;5105941;28;20054;-70
2023/10/12 03:25:43;;;;;;;11.68;4.07;;;;;;;;;;5096262;28;20044;-70
2023/10/12 03:28:17;;;;;;;21.48;6.63;;;;;;;;;;5102493;28;20136;-70
2023/10/12 03:30:53;;;;;;;11.55;4.65;;;;;;;;;;5098447;28;20475;-70
2023/10/12 03:33:19;;;;;;;13.60;4.80;;;;;;;;;;5106472;28;20055;-70
2023/10/12 03:35:57;;;;;;;15.65;5.35;;;;;;;;;;5103245;28;20089;-70
2023/10/12 03:38:32;;;;;;;19.10;5.50;;;;;;;;;;5104689;28;20054;-70
2023/10/12 03:43:53;;;;;;;14.65;4.63;;;;;;;;;;5099669;28;20044;-70
2023/10/12 03:46:32;;;;;;;14.05;5.40;;;;;;;;;;5096161;28;20217;-70
2023/10/12 03:49:09;;;;;;;19.05;5.70;;;;;;;;;;5109336;28;20128;-69
2023/10/12 03:51:42;;;;;;;13.30;5.35;;;;;;;;;;5110701;28;20408;-69
2023/10/12 03:54:18;;;;;;;20.35;6.05;;;;;;;;;;5095991;28;20082;-69
2023/10/12 03:56:48;;;;;;;21.85;6.15;;;;;;;;;;5110013;28;20035;-69
2023/10/12 03:59:19;;;;;;;19.55;6.47;;;;;;;;;;5105901;28;20047;-69
2023/10/12 04:01:46;;;;;;;9.65;5.55;;;;;;;;;;5107331;28;20321;-68
2023/10/12 04:09:31;;;;;;;25.60;7.32;;;;;;;;;;5111383;28;20046;-69
2023/10/12 04:12:15;;;;;;;19.30;7.43;;;;;;;;;;5106271;28;20142;-69
2023/10/12 04:14:49;;;;;;;22.45;7.15;;;;;;;;;;5110563;28;20047;-71
2023/10/12 04:17:41;;;;;;;23.67;8.55;;;;;;;;;;5098176;28;20047;-69
2023/10/12 04:20:22;;;;;;;21.95;7.93;;;;;;;;;;5107419;28;20052;-68
2023/10/12 04:25:47;;;;;;;24.75;9.52;;;;;;;;;;5108226;28;20059;-67
2023/10/12 04:28:16;;;;;;;21.55;8.10;;;;;;;;;;5109324;28;21315;-68
2023/10/12 04:33:25;;;;;;;18.13;9.07;;;;;;;;;;5109318;28;20048;-67
2023/10/12 04:36:09;;;;;;;22.63;8.15;;;;;;;;;;5102430;28;20123;-67
2023/10/12 04:39:25;;;;;;;26.15;8.80;;;;;;;;;;5108600;28;20048;-67
2023/10/12 04:41:27;;;;;;;26.58;8.85;;;;;;;;;;5104431;28;20130;-67
2023/10/12 04:43:53;;;;;;;20.92;9.10;;;;;;;;;;5099232;28;20127;-67
2023/10/12 04:54:31;;;;;;;25.88;8.82;;;;;;;;;;5109506;28;20355;-69
2023/10/12 04:59:49;;;;;;;26.60;10.35;;;;;;;;;;5109214;28;20135;-68
2023/10/12 05:07:40;;;;;;;25.65;10.30;;;;;;;;;;5106724;28;20047;-68
2023/10/12 05:10:14;;;;;;;20.85;10.60;;;;;;;;;;5106161;28;20124;-67
2023/10/12 05:12:41;;;;;;;20.88;11.02;;;;;;;;;;5099220;28;20127;-67
2023/10/12 05:15:11;;;;;;;33.13;11.05;;;;;;;;;;5102577;28;20883;-66
2023/10/12 05:17:38;;;;;;;26.98;11.05;;;;;;;;;;5108188;28;20126;-66
2023/10/12 05:20:05;;;;;;;31.65;12.63;;;;;;;;;;5106760;28;20071;-66
2023/10/12 05:22:31;;;;;;;36.60;12.00;;;;;;;;;;5108224;28;20655;-67
2023/10/12 05:24:58;;;;;;;30.92;11.02;;;;;;;;;;5094863;28;20051;-67
2023/10/12 05:27:38;;;;;;;24.25;11.15;;;;;;;;;;5108000;28;20044;-68
2023/10/12 05:30:19;;;;;;;25.90;11.57;;;;;;;;;;5100027;28;20055;-66
2023/10/12 05:32:55;;;;;;;27.98;12.45;;;;;;;;;;5105486;28;20109;-67
2023/10/12 05:35:49;;;;;;;18.45;11.27;;;;;;;;;;5093831;28;20040;-67
2023/10/12 05:38:10;;;;;;;26.63;11.63;;;;;;;;;;5096773;28;20044;-68
2023/10/12 05:40:42;;;;;;;28.30;11.85;;;;;;;;;;5104206;28;20093;-69
2023/10/12 05:43:19;;;;;;;23.27;11.10;;;;;;;;;;5105780;28;20043;-68
2023/10/12 05:45:45;;;;;;;33.00;13.05;;;;;;;;;;5108353;27;20150;-69
2023/10/12 05:48:15;;;;;;;30.65;11.52;;;;;;;;;;5103577;28;20051;-70
2023/10/12 05:50:42;;;;;;;31.88;13.98;;;;;;;;;;5106564;28;20043;-68
2023/10/12 05:53:08;;;;;;;31.33;13.02;;;;;;;;;;5100329;28;20077;-69
2023/10/12 05:55:35;;;;;;;25.23;11.35;;;;;;;;;;5105081;28;20704;-68
2023/10/12 05:58:15;;;;;;;26.67;13.38;;;;;;;;;;5103388;28;20070;-69
2023/10/12 06:00:45;;;;;;;27.25;12.45;;;;;;;;;;5105063;28;20213;-69
2023/10/12 06:03:20;;;;;;;29.33;12.55;;;;;;;;;;5108014;28;20035;-68
2023/10/12 06:05:48;;;;;;;30.17;12.27;;;;;;;;;;5094707;28;20119;-68
2023/10/12 06:08:16;;;;;;;27.95;13.07;;;;;;;;;;5099925;28;20056;-71
2023/10/12 06:10:43;;;;;;;24.60;12.90;;;;;;;;;;5100885;28;20087;-72
2023/10/12 06:13:12;;;;;;;36.78;12.90;;;;;;;;;;5105384;28;20563;-72
2023/10/12 06:15:49;;;;;;;30.40;12.77;;;;;;;;;;5106949;28;20089;-72
2023/10/12 06:18:30;;;;;;;33.08;12.82;;;;;;;;;;5107400;28;20693;-74
2023/10/12 06:21:06;;;;;;;43.72;12.68;;;;;;;;;;5105687;28;20077;-72
2023/10/12 06:23:39;;;;;;;29.63;12.50;;;;;;;;;;5100717;28;20134;-73
2023/10/12 06:26:09;;;;;;;29.40;13.02;;;;;;;;;;5107811;28;20048;-73
2023/10/12 06:28:38;;;;;;;33.40;12.38;;;;;;;;;;5105046;27;20062;-70
2023/10/12 06:31:07;;;;;;;31.10;13.10;;;;;;;;;;5112109;27;20046;-72
2023/10/12 06:33:40;;;;;;;23.98;12.10;;;;;;;;;;5112788;27;20557;-69
2023/10/12 06:36:16;;;;;;;29.27;13.20;;;;;;;;;;5114387;27;20054;-71
2023/10/12 06:39:27;;;;;;;30.02;13.18;;;;;;;;;;5107784;27;20043;-72
2023/10/12 06:44:50;;;;;;;25.95;13.23;;;;;;;;;;5110696;27;20100;-72
2023/10/12 06:46:53;;;;;;;39.28;13.00;;;;;;;;;;5095704;28;20138;-72
2023/10/12 06:49:23;;;;;;;25.27;12.05;;;;;;;;;;5109279;27;20052;-70
2023/10/12 06:51:54;;;;;;;18.65;11.50;;;;;;;;;;5097202;28;20051;-71
2023/10/12 06:54:32;;;;;;;34.72;12.75;;;;;;;;;;5105331;27;20051;-73
2023/10/12 07:02:28;;;;;;;31.23;11.73;;;;;;;;;;5103599;27;20050;-75
2023/10/12 07:04:56;;;;;;;27.92;11.50;;;;;;;;;;5107255;27;20043;-73
2023/10/12 07:07:30;;;;;;;24.35;10.77;;;;;;;;;;5108189;27;20058;-69
2023/10/12 07:12:49;;;;;;;32.38;11.20;;;;;;;;;;5118483;27;20044;-69
2023/10/12 07:15:23;;;;;;;31.33;11.45;;;;;;;;;;5108722;27;20054;-72
2023/10/12 07:17:50;;;;;;;21.63;11.82;;;;;;;;;;5106951;28;20121;-72
2023/10/12 07:23:14;;;;;;;23.35;10.50;;;;;;;;;;5102532;27;20618;-72
2023/10/12 07:25:45;;;;;;;22.65;9.95;;;;;;;;;;5101671;28;20051;-69
2023/10/12 07:33:59;;;;;;;22.58;10.32;;;;;;;;;;5113489;28;20046;-71
2023/10/12 07:39:43;;;;;;;17.77;9.18;;;;;;;;;;5102860;28;20062;-71
2023/10/12 07:42:12;;;;;;;19.88;10.30;;;;;;;;;;5104864;28;20056;-71
2023/10/12 07:44:42;;;;;;;22.27;9.57;;;;;;;;;;5115917;28;20518;-69
2023/10/12 07:47:18;;;;;;;27.35;11.45;;;;;;;;;;5109290;27;20457;-69
2023/10/12 07:49:49;;;;;;;20.13;9.75;;;;;;;;;;5106014;28;20052;-68
2023/10/12 07:54:48;;;;;;;27.70;10.15;;;;;;;;;;5110057;28;20047;-72
2023/10/12 07:57:19;;;;;;;19.10;9.90;;;;;;;;;;5104911;28;20047;-73
2023/10/12 08:13:16;;;;;;;23.23;9.85;;;;;;;;;;5097433;28;20118;-72
2023/10/12 08:23:57;;;;;;;7.43;1.80;;;;;;;;;;5109864;28;20139;-70
2023/10/12 08:26:47;;;;;;;5.53;1.23;;;;;;;;;;5099504;28;20071;-70
2023/10/12 08:32:04;;;;;;;11.40;2.85;;;;;;;;;;5109905;27;20101;-71
2023/10/12 08:39:49;;;;;;;8.88;2.08;;;;;;;;;;5092304;28;20040;-70
2023/10/12 08:44:49;;;;;;;12.45;1.90;;;;;;;;;;5102147;27;20044;-70
2023/10/12 08:47:27;;;;;;;15.43;1.70;;;;;;;;;;5099727;27;20047;-70
2023/10/12 08:50:01;;;;;;;11.43;2.00;;;;;;;;;;5108263;27;20046;-66
2023/10/12 08:52:29;;;;;;;10.15;2.08;;;;;;;;;;5118582;27;20101;-70
2023/10/12 08:55:11;;;;;;;20.10;2.13;;;;;;;;;;5108629;27;20035;-71
2023/10/12 08:58:01;;;;;;;16.13;2.05;;;;;;;;;;5109409;27;20122;-70
2023/10/12 09:03:07;;;;;;;15.10;3.20;;;;;;;;;;5115194;27;20043;-69
2023/10/12 09:05:34;;;;;;;10.52;2.33;;;;;;;;;;5110086;27;20352;-70
2023/10/12 09:08:08;;;;;;;14.90;2.33;;;;;;;;;;5103902;28;20040;-69
2023/10/12 09:13:47;;;;;;;21.17;3.38;;;;;;;;;;5080780;28;20123;-70
2023/10/12 09:16:15;;;;;;;16.90;2.53;;;;;;;;;;5107265;27;20135;-69
2023/10/12 09:24:14;;;;;;;17.02;2.92;;;;;;;;;;5107684;27;20051;-71
2023/10/12 09:26:49;;;;;;;14.38;3.00;;;;;;;;;;5103944;27;20542;-70
2023/10/12 09:29:23;;;;;;;14.43;4.22;;;;;;;;;;5108897;28;20573;-69
2023/10/12 09:34:43;;;;;;;10.93;1.85;;;;;;;;;;5123506;27;20087;-70
2023/10/12 09:37:16;;;;;;;19.00;2.23;;;;;;;;;;5103692;27;20051;-70
2023/10/12 09:39:45;;;;;;;14.98;1.98;;;;;;;;;;5105656;27;20044;-71
2023/10/12 09:42:25;;;;;;;12.85;2.05;;;;;;;;;;5111235;27;20136;-71
2023/10/12 09:45:01;;;;;;;14.77;1.73;;;;;;;;;;5098385;27;20039;-70
2023/10/12 09:47:44;;;;;;;19.85;2.95;;;;;;;;;;5116293;27;20047;-68
2023/10/12 09:50:13;;;;;;;8.82;1.90;;;;;;;;;;5116544;27;20047;-69
2023/10/12 09:52:57;;;;;;;15.88;3.30;;;;;;;;;;5107098;27;20051;-72
2023/10/12 09:55:32;;;;;;;10.57;3.20;;;;;;;;;;5108322;27;20081;-70
2023/10/12 09:58:24;;;;;;;15.40;2.50;;;;;;;;;;5107116;28;20288;-71
2023/10/12 10:00:55;;;;;;;9.97;1.93;;;;;;;;;;5100686;27;20046;-72
2023/10/12 10:03:35;;;;;;;8.52;2.10;;;;;;;;;;5118947;27;20044;-71
2023/10/12 10:06:10;;;;;;;18.38;1.55;;;;;;;;;;5104043;27;20055;-70
2023/10/12 10:08:45;;;;;;;10.98;2.45;;;;;;;;;;5113196;27;20134;-69
2023/10/12 10:11:26;;;;;;;21.50;2.40;;;;;;;;;;5119184;27;20584;-69
2023/10/12 10:14:03;;;;;;;9.23;2.35;;;;;;;;;;5113478;27;20056;-72
2023/10/12 10:16:57;;;;;;;8.20;2.15;;;;;;;;;;5112097;27;20050;-69
2023/10/12 10:19:29;;;;;;;12.25;2.45;;;;;;;;;;5110604;27;20670;-72
2023/10/12 10:22:15;;;;;;;21.05;3.67;;;;;;;;;;5108292;27;20087;-71
2023/10/12 10:25:04;;;;;;;11.25;2.80;;;;;;;;;;5106731;27;20039;-72
2023/10/12 10:27:56;;;;;;;17.07;2.00;;;;;;;;;;5103126;27;20036;-71
2023/10/12 10:30:41;;;;;;;12.02;2.42;;;;;;;;;;5106992;27;20354;-71
2023/10/12 10:33:22;;;;;;;10.23;2.22;;;;;;;;;;5115445;27;20044;-72
2023/10/12 10:35:54;;;;;;;18.85;2.58;;;;;;;;;;5101682;27;20155;-70
2023/10/12 10:38:21;;;;;;;13.88;2.15;;;;;;;;;;5103637;27;20541;-69
2023/10/12 10:40:50;;;;;;;8.23;1.52;;;;;;;;;;5110213;27;20107;-69
2023/10/12 10:43:16;;;;;;;8.27;1.52;;;;;;;;;;5105649;27;20463;-70
2023/10/12 10:45:56;;;;;;;15.88;3.17;;;;;;;;;;5106292;28;20051;-71
2023/10/12 10:48:27;;;;;;;12.25;2.42;;;;;;;;;;5104332;27;20053;-69
2023/10/12 10:51:19;;;;;;;13.05;2.22;;;;;;;;;;5126672;27;20054;-70
2023/10/12 10:53:55;;;;;;;14.80;2.28;;;;;;;;;;5115792;27;20058;-69
2023/10/12 10:56:47;;;;;;;16.63;3.00;;;;;;;;;;5118414;27;20047;-71
2023/10/12 10:59:44;;;;;;;14.50;2.90;;;;;;;;;;5107819;27;20134;-70
2023/10/12 11:02:22;;;;;;;17.70;2.67;;;;;;;;;;5100308;27;20050;-71
2023/10/12 11:05:00;;;;;;;10.50;1.92;;;;;;;;;;5097642;27;20538;-70
2023/10/12 11:07:37;;;;;;;9.68;2.42;;;;;;;;;;5101765;27;20044;-70
2023/10/12 11:10:34;;;;;;;10.90;1.73;;;;;;;;;;5118213;27;20114;-71
2023/10/12 11:13:17;;;;;;;18.58;3.20;;;;;;;;;;5113224;27;20043;-69
2023/10/12 11:16:05;;;;;;;14.40;2.40;;;;;;;;;;5098732;27;20117;-69
2023/10/12 11:18:32;;;;;;;13.30;1.95;;;;;;;;;;5106732;27;20039;-71
2023/10/12 11:21:03;;;;;;;18.00;3.60;;;;;;;;;;5116478;27;20118;-72
2023/10/12 11:23:50;;;;;;;15.38;3.08;;;;;;;;;;5111946;27;20051;-73
2023/10/12 11:26:54;;;;;;;12.35;2.15;;;;;;;;;;5115669;28;20051;-72
2023/10/12 11:29:28;;;;;;;;;;;;;;;;;;5115323;28;20161;-72
2023/10/12 11:32:16;;;;;;;12.03;2.87;;;;;;;;;;5112343;28;19919;-68
2023/10/12 11:34:54;;;;;;;13.38;2.50;;;;;;;;;;5097520;28;20050;-71
2023/10/12 11:37:31;;;;;;;19.73;2.13;;;;;;;;;;5105973;28;20140;-70
2023/10/12 11:40:26;;;;;;;9.15;2.83;;;;;;;;;;5106807;28;20048;-69
2023/10/12 11:42:58;;;;;;;15.10;3.78;;;;;;;;;;5101614;28;20182;-72
2023/10/12 11:45:34;;;;;;;15.60;3.42;;;;;;;;;;5111026;28;20059;-70
2023/10/12 11:48:24;;;;;;;16.80;4.18;;;;;;;;;;5102072;28;20480;-71
2023/10/12 11:51:13;;;;;;;10.77;2.17;;;;;;;;;;5112821;28;20731;-72
2023/10/12 11:54:05;;;;;;;23.33;3.08;;;;;;;;;;5110560;27;20047;-70
2023/10/12 11:56:44;;;;;;;13.68;3.63;;;;;;;;;;5115842;27;20040;-70
2023/10/12 11:59:22;;;;;;;16.92;3.05;;;;;;;;;;5103117;28;20062;-71
2023/10/12 12:02:08;;;;;;;16.10;3.85;;;;;;;;;;5104982;28;20093;-70
2023/10/12 12:04:44;;;;;;;22.00;3.05;;;;;;;;;;5109480;28;20052;-70
2023/10/12 12:07:36;;;;;;;11.30;2.53;;;;;;;;;;5109424;27;20040;-72
2023/10/12 12:10:16;;;;;;;10.02;2.78;;;;;;;;;;5118174;27;20483;-71
2023/10/12 12:12:47;;;;;;;14.65;2.60;;;;;;;;;;5105990;27;20381;-74
2023/10/12 12:15:17;;;;;;;;;;;;;;;;;;5111817;27;20560;-71
2023/10/12 12:17:48;;;;;;;10.83;2.90;;;;;;;;;;5111237;27;19919;-74
2023/10/12 12:20:21;;;;;;;17.98;2.78;;;;;;;;;;5108491;27;20040;-72
2023/10/12 12:22:50;;;;;;;16.98;2.30;;;;;;;;;;5100942;27;20496;-72
2023/10/12 12:25:31;;;;;;;11.18;1.83;;;;;;;;;;5106686;27;20137;-74
2023/10/12 12:28:02;;;;;;;12.20;2.47;;;;;;;;;;5105963;27;20079;-74
2023/10/12 12:30:32;;;;;;;15.77;2.25;;;;;;;;;;5111026;27;20039;-75
2023/10/12 12:33:15;;;;;;;19.48;2.80;;;;;;;;;;5103044;27;20518;-72
2023/10/12 12:35:45;;;;;;;11.40;2.17;;;;;;;;;;5115023;27;20047;-74
2023/10/12 12:38:28;;;;;;;14.70;2.70;;;;;;;;;;5108467;27;20075;-74
2023/10/12 12:40:56;;;;;;;14.15;2.17;;;;;;;;;;5106916;27;20063;-74
2023/10/12 12:43:23;;;;;;;10.70;1.70;;;;;;;;;;5099978;27;20506;-74
2023/10/12 12:45:52;;;;;;;16.30;2.63;;;;;;;;;;5067825;27;75291;-71
2023/10/12 12:48:22;;;;;;;16.30;1.90;;;;;;;;;;5043691;28;20071;-73
2023/10/12 12:50:48;;;;;;;9.93;2.50;;;;;;;;;;5033760;28;20045;-73
2023/10/12 12:53:19;;;;;;;14.13;2.90;;;;;;;;;;5028115;28;20134;-71
2023/10/12 12:55:46;;;;;;;23.13;4.40;;;;;;;;;;5031304;28;20111;-69
2023/10/12 12:58:17;;;;;;;17.10;3.30;;;;;;;;;;5029897;28;20042;-71
2023/10/12 13:00:47;;;;;;;10.93;1.98;;;;;;;;;;5034916;28;21451;-68
2023/10/12 13:03:16;;;;;;;9.77;1.42;;;;;;;;;;5034371;28;20502;-71
2023/10/12 13:05:43;;;;;;;13.65;2.30;;;;;;;;;;5032281;28;20119;-71
2023/10/12 13:08:11;;;;;;;10.73;2.53;;;;;;;;;;5030909;28;20701;-71
2023/10/12 13:10:38;;;;;;;13.73;3.65;;;;;;;;;;5031543;28;20682;-69
2023/10/12 13:13:05;;;;;;;9.30;2.45;;;;;;;;;;5037696;28;20037;-69
2023/10/12 13:15:31;;;;;;;12.00;2.08;;;;;;;;;;5031019;28;20216;-67
2023/10/12 13:17:58;;;;;;;13.85;2.00;;;;;;;;;;5032535;28;20084;-66
2023/10/12 13:20:31;;;;;;;12.60;2.67;;;;;;;;;;5035029;28;20041;-66
2023/10/12 13:22:58;;;;;;;10.02;1.45;;;;;;;;;;5039966;28;20119;-67
2023/10/12 13:25:27;;;;;;;14.55;1.85;;;;;;;;;;5028037;28;20195;-69
2023/10/12 13:27:54;;;;;;;10.93;2.15;;;;;;;;;;5034381;28;20516;-67
2023/10/12 13:30:21;;;;;;;14.32;2.20;;;;;;;;;;5031772;28;20675;-67
2023/10/12 13:32:48;;;;;;;7.57;1.60;;;;;;;;;;5034023;28;20523;-67
2023/10/12 13:35:18;;;;;;;20.63;2.55;;;;;;;;;;5027343;28;20110;-66
2023/10/12 13:37:45;;;;;;;11.50;1.90;;;;;;;;;;5029261;28;20088;-68
2023/10/12 13:40:15;;;;;;;11.50;2.30;;;;;;;;;;5025951;28;20734;-68
2023/10/12 13:42:42;;;;;;;13.30;1.92;;;;;;;;;;5039225;28;20128;-67
2023/10/12 13:45:12;;;;;;;13.18;2.17;;;;;;;;;;5044859;28;20052;-68
2023/10/12 13:47:40;;;;;;;10.82;1.92;;;;;;;;;;5038450;28;20088;-68
2023/10/12 13:50:10;;;;;;;16.45;2.88;;;;;;;;;;5036138;28;20053;-70
2023/10/12 13:52:40;;;;;;;6.85;2.13;;;;;;;;;;5027833;28;20053;-68
2023/10/12 13:55:13;;;;;;;8.63;1.83;;;;;;;;;;5029916;28;20128;-66
2023/10/12 13:57:55;;;;;;;10.15;2.22;;;;;;;;;;5034437;28;20059;-67
2023/10/12 14:00:25;;;;;;;15.27;2.20;;;;;;;;;;5040140;28;20079;-65
2023/10/12 14:02:58;;;;;;;10.40;1.80;;;;;;;;;;5037986;28;20075;-68
2023/10/12 14:05:29;;;;;;;11.32;2.08;;;;;;;;;;5038712;28;20051;-69
2023/10/12 14:07:55;;;;;;;15.57;2.20;;;;;;;;;;5034516;28;20413;-71
2023/10/12 14:10:22;;;;;;;9.80;2.42;;;;;;;;;;5033670;28;20088;-71
2023/10/12 14:12:53;;;;;;;14.13;2.42;;;;;;;;;;5034130;28;20049;-69
2023/10/12 14:15:35;;;;;;;16.23;2.42;;;;;;;;;;5053302;28;20114;-71
2023/10/12 14:18:02;;;;;;;12.70;1.95;;;;;;;;;;5039325;28;20053;-70
2023/10/12 14:20:29;;;;;;;11.60;2.67;;;;;;;;;;5027110;28;20042;-74
2023/10/12 14:22:57;;;;;;;15.27;1.75;;;;;;;;;;5034758;28;20120;-74
2023/10/12 14:25:27;;;;;;;8.43;2.33;;;;;;;;;;5035680;28;20105;-72
2023/10/12 14:27:55;;;;;;;15.20;2.90;;;;;;;;;;5035688;28;20046;-74
2023/10/12 14:30:30;;;;;;;8.25;2.13;;;;;;;;;;5032760;28;20092;-69
2023/10/12 14:32:57;;;;;;;14.88;3.00;;;;;;;;;;5033509;28;20075;-68
2023/10/12 14:35:25;;;;;;;15.95;2.40;;;;;;;;;;5036721;28;20037;-70
2023/10/12 14:37:55;;;;;;;14.35;2.15;;;;;;;;;;5030643;28;20159;-70
2023/10/12 14:40:28;;;;;;;13.52;2.72;;;;;;;;;;5033280;28;20099;-70
2023/10/12 14:42:56;;;;;;;10.98;3.03;;;;;;;;;;5033886;28;20130;-70
2023/10/12 14:45:24;;;;;;;12.65;2.70;;;;;;;;;;5031331;28;20048;-68
2023/10/12 14:47:52;;;;;;;12.63;1.90;;;;;;;;;;5035376;28;20553;-72
2023/10/12 14:50:20;;;;;;;20.52;2.53;;;;;;;;;;5041559;28;20053;-68
2023/10/12 14:52:52;;;;;;;14.93;1.90;;;;;;;;;;5050123;28;20511;-72
2023/10/12 14:55:20;;;;;;;10.55;1.63;;;;;;;;;;5030554;28;20083;-71
2023/10/12 14:57:49;;;;;;;15.70;3.85;;;;;;;;;;5039471;28;20144;-72
2023/10/12 15:00:25;;;;;;;23.45;2.53;;;;;;;;;;5033810;28;20046;-71
2023/10/12 15:02:53;;;;;;;15.48;2.55;;;;;;;;;;5037524;28;20665;-71
2023/10/12 15:05:22;;;;;;;13.65;3.05;;;;;;;;;;5030607;28;20056;-67
2023/10/12 15:07:49;;;;;;;15.10;3.17;;;;;;;;;;5044039;28;20053;-72
2023/10/12 15:10:18;;;;;;;18.05;2.97;;;;;;;;;;5030303;28;20064;-71
2023/10/12 15:12:48;;;;;;;11.07;2.00;;;;;;;;;;5028116;28;20485;-71
2023/10/12 15:15:20;;;;;;;12.75;2.45;;;;;;;;;;5031202;28;20116;-70
2023/10/12 15:17:49;;;;;;;16.58;2.30;;;;;;;;;;5028034;28;20120;-70
2023/10/12 15:20:16;;;;;;;19.50;3.45;;;;;;;;;;5031643;28;21362;-67
2023/10/12 15:22:44;;;;;;;5.95;2.15;;;;;;;;;;5029694;28;20057;-72
2023/10/12 15:25:12;;;;;;;9.35;2.47;;;;;;;;;;5031199;28;20057;-72
2023/10/12 15:27:40;;;;;;;11.68;2.72;;;;;;;;;;5030925;28;20072;-72
2023/10/12 15:30:10;;;;;;;14.15;2.55;;;;;;;;;;5029631;28;20049;-72
2023/10/12 15:32:41;;;;;;;12.27;2.75;;;;;;;;;;5029047;28;20080;-69
2023/10/12 15:35:11;;;;;;;12.38;2.42;;;;;;;;;;5027559;28;20057;-70
2023/10/12 15:37:45;;;;;;;14.30;2.08;;;;;;;;;;5031552;28;20146;-69
2023/10/12 15:40:11;;;;;;;16.52;2.50;;;;;;;;;;5030685;28;20069;-69
2023/10/12 15:42:39;;;;;;;24.08;3.25;;;;;;;;;;5027965;28;20044;-68
2023/10/12 15:45:07;;;;;;;13.88;2.25;;;;;;;;;;5035730;28;20084;-68
2023/10/12 15:47:33;;;;;;;8.98;1.98;;;;;;;;;;5025328;28;20147;-71
2023/10/12 15:50:00;;;;;;;16.00;2.40;;;;;;;;;;5033276;28;20045;-67
2023/10/12 15:52:26;;;;;;;17.08;2.78;;;;;;;;;;5032217;28;20052;-68
2023/10/12 15:54:53;;;;;;;19.35;2.65;;;;;;;;;;5037550;28;20060;-71
2023/10/12 15:57:19;;;;;;;7.72;2.20;;;;;;;;;;5032217;28;20050;-68
2023/10/12 15:59:46;;;;;;;10.15;2.40;;;;;;;;;;5033891;28;20097;-69
2023/10/12 16:02:13;;;;;;;10.95;1.83;;;;;;;;;;5026913;28;20049;-69
2023/10/12 16:04:45;;;;;;;21.73;2.75;;;;;;;;;;5040574;28;20128;-67
2023/10/12 16:07:17;;;;;;;13.95;4.15;;;;;;;;;;5035524;28;20132;-65
2023/10/12 16:09:46;;;;;;;9.85;1.98;;;;;;;;;;5034866;28;20045;-68
2023/10/12 16:12:18;;;;;;;12.23;2.90;;;;;;;;;;5030769;28;20537;-69
2023/10/12 16:14:50;;;;;;;9.80;2.15;;;;;;;;;;5037297;28;20056;-66
2023/10/12 16:17:21;;;;;;;8.00;1.95;;;;;;;;;;5035231;28;20136;-70
2023/10/12 16:19:51;;;;;;;11.75;2.30;;;;;;;;;;5050312;28;20049;-68
2023/10/12 16:22:20;;;;;;;10.55;2.45;;;;;;;;;;5027650;28;20057;-68
2023/10/12 16:24:47;;;;;;;11.18;2.08;;;;;;;;;;5034316;28;20219;-66
2023/10/12 16:27:17;;;;;;;12.10;4.07;;;;;;;;;;5030220;28;20052;-66
2023/10/12 16:29:44;;;;;;;9.95;2.53;;;;;;;;;;5031534;28;20558;-67
2023/10/12 16:32:25;;;;;;;10.88;2.28;;;;;;;;;;5033042;28;20122;-67
2023/10/12 16:34:52;;;;;;;7.88;2.33;;;;;;;;;;5031452;28;20053;-69
2023/10/12 16:37:19;;;;;;;12.50;2.42;;;;;;;;;;5033684;28;20060;-69
2023/10/12 16:39:46;;;;;;;8.25;3.20;;;;;;;;;;5028357;28;20072;-66
2023/10/12 16:42:13;;;;;;;16.65;3.15;;;;;;;;;;5033065;28;20417;-72
2023/10/12 16:44:40;;;;;;;11.32;2.72;;;;;;;;;;5033064;28;20053;-69
2023/10/12 16:47:06;;;;;;;14.25;2.05;;;;;;;;;;5032010;28;20045;-68
2023/10/12 16:49:33;;;;;;;6.80;1.75;;;;;;;;;;5033065;28;21039;-64
2023/10/12 16:52:00;;;;;;;10.73;2.05;;;;;;;;;;5029990;28;20072;-66
2023/10/12 16:54:27;;;;;;;10.02;2.60;;;;;;;;;;5040701;28;20073;-64
2023/10/12 16:56:54;;;;;;;10.35;2.78;;;;;;;;;;5031490;28;20041;-67